createdAt,value
2022-12-09T00:00:21.197Z,18.50
2022-12-09T00:02:47.830Z,20.33
2022-12-09T00:05:14.789Z,18.27
2022-12-09T00:07:41.191Z,19.08
2022-12-09T00:10:08.374Z,19.27
2022-12-09T00:12:35.160Z,19.55
2022-12-09T00:15:01.539Z,18.77
2022-12-09T00:17:28.205Z,18.63
2022-12-09T00:19:54.768Z,18.30
2022-12-09T00:22:21.167Z,18.83
2022-12-09T00:24:47.552Z,18.30
2022-12-09T00:27:13.998Z,18.92
2022-12-09T00:29:40.544Z,18.13
2022-12-09T00:32:07.080Z,18.42
2022-12-09T00:34:33.576Z,18.88
2022-12-09T00:37:00.114Z,20.35
2022-12-09T00:39:26.597Z,19.48
2022-12-09T00:41:53.006Z,19.90
2022-12-09T00:44:19.493Z,20.02
2022-12-09T00:46:46.030Z,21.23
2022-12-09T00:49:12.681Z,21.90
2022-12-09T00:51:39.168Z,21.30
2022-12-09T00:54:05.651Z,21.70
2022-12-09T00:56:32.377Z,22.02
2022-12-09T00:58:59.322Z,20.73
2022-12-09T01:01:26.676Z,21.95
2022-12-09T01:03:53.535Z,21.45
2022-12-09T01:06:23.798Z,21.98
2022-12-09T01:08:50.837Z,22.17
2022-12-09T01:11:27.014Z,22.02
2022-12-09T01:13:54.690Z,21.50
2022-12-09T01:16:26.596Z,21.38
2022-12-09T01:18:55.258Z,20.48
2022-12-09T01:21:21.715Z,19.17
2022-12-09T01:23:48.073Z,19.65
2022-12-09T01:26:14.416Z,19.88
2022-12-09T01:28:41.012Z,20.33
2022-12-09T01:31:10.271Z,21.02
2022-12-09T01:33:37.066Z,22.20
2022-12-09T01:36:09.741Z,21.30
2022-12-09T01:38:36.361Z,19.85
2022-12-09T01:41:03.311Z,19.90
2022-12-09T01:43:30.016Z,19.63
2022-12-09T01:45:56.830Z,19.50
2022-12-09T01:48:35.014Z,19.17
2022-12-09T01:51:19.005Z,20.17
2022-12-09T01:53:49.574Z,20.38
2022-12-09T01:56:29.378Z,19.38
2022-12-09T01:59:02.416Z,19.92
2022-12-09T02:01:29.315Z,19.90
2022-12-09T02:03:56.217Z,20.10
2022-12-09T02:06:22.799Z,20.80
2022-12-09T02:08:50.786Z,20.20
2022-12-09T02:11:26.615Z,18.17
2022-12-09T02:14:24.383Z,19.55
2022-12-09T02:17:09.420Z,18.80
2022-12-09T02:20:01.516Z,19.48
2022-12-09T02:22:34.655Z,19.52
2022-12-09T02:25:30.428Z,19.77
2022-12-09T02:28:15.624Z,19.58
2022-12-09T02:31:26.463Z,19.27
2022-12-09T02:34:17.403Z,19.90
2022-12-09T02:37:02.570Z,20.65
2022-12-09T02:39:53.044Z,18.75
2022-12-09T02:42:22.882Z,18.42
2022-12-09T02:44:51.583Z,19.33
2022-12-09T02:47:21.240Z,20.33
2022-12-09T02:49:51.845Z,19.75
2022-12-09T02:52:19.474Z,21.42
2022-12-09T02:54:47.002Z,21.42
2022-12-09T02:57:24.060Z,20.92
2022-12-09T02:59:50.714Z,21.83
2022-12-09T03:02:28.351Z,22.48
2022-12-09T03:05:28.752Z,23.20
2022-12-09T03:08:23.160Z,23.95
2022-12-09T03:11:07.617Z,24.80
2022-12-09T03:16:18.432Z,21.60
2022-12-09T03:18:50.749Z,22.42
2022-12-09T03:21:20.941Z,23.23
2022-12-09T03:23:50.149Z,24.65
2022-12-09T03:26:17.988Z,25.52
2022-12-09T03:28:49.239Z,24.23
2022-12-09T03:31:19.868Z,24.42
2022-12-09T03:33:49.118Z,24.02
2022-12-09T03:36:18.449Z,23.23
2022-12-09T03:38:48.439Z,23.52
2022-12-09T03:41:24.263Z,23.50
2022-12-09T03:43:55.446Z,23.73
2022-12-09T03:46:23.181Z,23.25
2022-12-09T03:48:50.112Z,25.27
2022-12-09T03:51:21.129Z,25.60
2022-12-09T03:53:55.970Z,25.67
2022-12-09T03:56:27.564Z,25.52
2022-12-09T03:58:56.607Z,25.15
2022-12-09T04:01:25.305Z,26.08
2022-12-09T04:03:54.525Z,25.88
2022-12-09T04:06:21.886Z,24.92
2022-12-09T04:08:48.607Z,24.60
2022-12-09T04:11:15.315Z,25.55
2022-12-09T04:13:41.890Z,23.02
2022-12-09T04:16:09.468Z,25.17
2022-12-09T04:18:35.989Z,24.58
2022-12-09T04:21:07.329Z,25.35
2022-12-09T04:23:37.886Z,26.63
2022-12-09T04:26:08.120Z,25.45
2022-12-09T04:28:34.463Z,24.70
2022-12-09T04:31:01.036Z,24.67
2022-12-09T04:33:27.755Z,25.83
2022-12-09T04:35:54.518Z,24.63
2022-12-09T04:38:20.892Z,24.50
2022-12-09T04:40:47.517Z,24.88
2022-12-09T04:43:13.980Z,24.25
2022-12-09T04:45:40.666Z,22.23
2022-12-09T04:48:07.707Z,21.92
2022-12-09T04:50:34.175Z,21.98
2022-12-09T04:53:00.614Z,22.23
2022-12-09T04:55:27.439Z,21.65
2022-12-09T04:57:54.261Z,23.00
2022-12-09T05:00:21.226Z,21.95
2022-12-09T05:02:47.742Z,22.58
2022-12-09T05:05:14.997Z,22.42
2022-12-09T05:07:42.173Z,23.33
2022-12-09T05:10:09.882Z,24.27
2022-12-09T05:12:37.168Z,24.13
2022-12-09T05:15:04.031Z,23.42
2022-12-09T05:17:30.688Z,24.88
2022-12-09T05:19:57.577Z,24.52
2022-12-09T05:22:27.244Z,22.05
2022-12-09T05:24:53.696Z,22.27
2022-12-09T05:27:20.247Z,23.55
2022-12-09T05:29:47.569Z,22.65
2022-12-09T05:32:14.598Z,23.60
2022-12-09T05:34:41.314Z,22.05
2022-12-09T05:37:07.869Z,21.85
2022-12-09T05:39:34.978Z,21.63
2022-12-09T05:42:01.833Z,20.77
2022-12-09T05:44:28.512Z,21.75
2022-12-09T05:46:55.102Z,20.95
2022-12-09T05:49:22.120Z,21.25
2022-12-09T05:51:49.050Z,20.60
2022-12-09T05:54:18.785Z,20.67
2022-12-09T05:56:48.317Z,20.83
2022-12-09T05:59:15.717Z,20.20
2022-12-09T06:01:42.257Z,19.63
2022-12-09T06:04:09.353Z,20.45
2022-12-09T06:06:36.247Z,20.40
2022-12-09T06:09:03.740Z,19.13
2022-12-09T06:14:12.704Z,19.73
2022-12-09T06:16:44.777Z,20.25
2022-12-09T06:19:12.367Z,19.35
2022-12-09T06:21:40.912Z,20.45
2022-12-09T06:24:08.648Z,20.77
2022-12-09T06:26:35.557Z,21.50
2022-12-09T06:29:02.428Z,21.85
2022-12-09T06:31:30.237Z,19.20
2022-12-09T06:33:58.426Z,20.85
2022-12-09T06:36:35.648Z,19.00
2022-12-09T06:39:10.024Z,20.50
2022-12-09T06:41:40.215Z,21.92
2022-12-09T06:44:06.840Z,21.85
2022-12-09T06:46:33.792Z,21.80
2022-12-09T06:49:00.418Z,22.17
2022-12-09T06:51:30.100Z,21.45
2022-12-09T06:53:56.695Z,21.00
2022-12-09T06:56:36.249Z,22.52
2022-12-09T06:59:07.180Z,21.50
2022-12-09T07:01:35.127Z,20.55
2022-12-09T07:04:04.309Z,21.60
2022-12-09T07:06:39.556Z,22.42
2022-12-09T07:09:36.272Z,22.48
2022-12-09T07:12:03.600Z,21.63
2022-12-09T07:14:30.124Z,23.20
2022-12-09T07:16:56.653Z,21.10
2022-12-09T07:19:23.987Z,22.35
2022-12-09T07:21:51.700Z,22.83
2022-12-09T07:24:19.288Z,21.60
2022-12-09T07:26:47.004Z,22.30
2022-12-09T07:29:13.581Z,21.92
2022-12-09T07:31:40.620Z,20.00
2022-12-09T07:34:07.631Z,21.10
2022-12-09T07:36:35.773Z,21.45
2022-12-09T07:39:05.739Z,19.98
2022-12-09T07:41:32.548Z,18.50
2022-12-09T07:43:59.224Z,20.00
2022-12-09T07:46:29.718Z,20.65
2022-12-09T07:48:57.617Z,20.77
2022-12-09T07:51:25.143Z,20.88
2022-12-09T07:53:51.859Z,23.00
2022-12-09T07:56:19.626Z,21.75
2022-12-09T07:58:48.051Z,20.30
2022-12-09T08:01:20.494Z,22.23
2022-12-09T08:03:48.548Z,21.38
2022-12-09T08:06:20.456Z,21.20
2022-12-09T08:08:48.217Z,22.60
2022-12-09T08:11:18.158Z,23.05
2022-12-09T08:13:48.260Z,25.13
2022-12-09T08:16:16.815Z,23.02
2022-12-09T08:18:45.622Z,24.73
2022-12-09T08:21:16.724Z,23.77
2022-12-09T08:23:44.098Z,23.45
2022-12-09T08:26:12.942Z,22.65
2022-12-09T08:31:56.864Z,19.48
2022-12-09T08:34:23.386Z,22.23
2022-12-09T08:36:50.310Z,23.33
2022-12-09T08:39:16.933Z,20.30
2022-12-09T08:41:44.578Z,21.73
2022-12-09T08:44:17.192Z,21.50
2022-12-09T08:46:49.305Z,20.40
2022-12-09T08:49:18.896Z,19.95
2022-12-09T08:51:47.451Z,20.02
2022-12-09T08:54:13.979Z,20.88
2022-12-09T08:56:44.779Z,19.52
2022-12-09T08:59:11.167Z,19.63
2022-12-09T09:01:37.585Z,19.83
2022-12-09T09:04:08.135Z,20.15
2022-12-09T09:06:37.353Z,20.05
2022-12-09T09:09:06.091Z,20.42
2022-12-09T09:11:33.737Z,19.58
2022-12-09T09:14:04.146Z,20.00
2022-12-09T09:16:30.745Z,21.77
2022-12-09T09:18:58.269Z,21.00
2022-12-09T09:21:27.799Z,21.55
2022-12-09T09:23:54.874Z,21.20
2022-12-09T09:26:23.962Z,20.77
2022-12-09T09:28:53.762Z,21.60
2022-12-09T09:31:29.122Z,21.42
2022-12-09T09:33:56.374Z,21.00
2022-12-09T09:36:24.810Z,20.95
2022-12-09T09:39:00.203Z,20.90
2022-12-09T09:41:55.502Z,20.63
2022-12-09T09:44:42.007Z,21.70
2022-12-09T09:47:34.750Z,19.55
2022-12-09T09:50:18.216Z,20.58
2022-12-09T09:52:45.381Z,19.98
2022-12-09T09:55:18.370Z,20.95
2022-12-09T09:57:57.554Z,20.42
2022-12-09T10:00:38.247Z,19.02
2022-12-09T10:03:53.599Z,19.08
2022-12-09T10:06:30.029Z,21.58
2022-12-09T10:09:07.026Z,21.02
2022-12-09T10:11:55.268Z,19.45
2022-12-09T10:14:51.312Z,19.77
2022-12-09T10:17:29.011Z,23.05
2022-12-09T10:20:05.068Z,19.83
2022-12-09T10:22:44.957Z,20.83
2022-12-09T10:25:26.684Z,19.60
2022-12-09T10:28:26.960Z,19.15
2022-12-09T10:30:55.632Z,19.17
2022-12-09T10:33:41.025Z,18.83
2022-12-09T10:36:22.145Z,19.70
2022-12-09T10:38:48.769Z,19.23
2022-12-09T10:42:10.563Z,18.63
2022-12-09T10:44:38.206Z,17.90
2022-12-09T10:47:28.241Z,19.95
2022-12-09T10:49:55.638Z,18.65
2022-12-09T10:52:25.695Z,17.85
2022-12-09T10:54:52.996Z,16.60
2022-12-09T10:57:19.617Z,16.48
2022-12-09T10:59:59.491Z,14.00
2022-12-09T11:02:26.403Z,12.13
2022-12-09T11:04:54.712Z,10.73
2022-12-09T11:07:27.154Z,10.35
2022-12-09T11:09:56.950Z,10.48
2022-12-09T11:12:27.389Z,10.13
2022-12-09T11:14:59.791Z,10.40
2022-12-09T11:17:36.013Z,10.75
2022-12-09T11:20:05.756Z,9.90
2022-12-09T11:22:41.204Z,10.52
2022-12-09T11:25:11.143Z,12.30
2022-12-09T11:27:41.486Z,10.18
2022-12-09T11:30:29.133Z,8.98
2022-12-09T11:32:59.063Z,8.88
2022-12-09T11:35:44.907Z,9.25
2022-12-09T11:38:45.378Z,8.70
2022-12-09T11:41:53.729Z,8.70
2022-12-09T11:44:44.312Z,8.65
2022-12-09T11:47:13.676Z,9.13
2022-12-09T11:49:54.506Z,7.10
2022-12-09T11:52:25.335Z,13.52
2022-12-09T11:55:05.884Z,8.20
2022-12-09T11:57:38.127Z,7.22
2022-12-09T12:00:16.269Z,6.68
2022-12-09T12:03:15.001Z,7.75
2022-12-09T12:05:43.452Z,9.00
2022-12-09T12:08:22.233Z,10.55
2022-12-09T12:11:17.904Z,11.95
2022-12-09T12:13:48.428Z,10.05
2022-12-09T12:16:26.081Z,10.32
2022-12-09T12:19:09.858Z,16.23
2022-12-09T12:22:09.436Z,12.50
2022-12-09T12:24:50.966Z,12.82
2022-12-09T12:27:37.345Z,12.50
2022-12-09T12:30:09.527Z,11.30
2022-12-09T12:33:11.874Z,8.95
2022-12-09T12:35:54.331Z,10.82
2022-12-09T12:38:42.473Z,8.88
2022-12-09T12:41:08.717Z,9.40
2022-12-09T12:44:00.173Z,9.95
2022-12-09T12:46:59.686Z,11.05
2022-12-09T12:50:00.612Z,8.50
2022-12-09T12:52:55.589Z,8.23
2022-12-09T12:55:50.950Z,9.48
2022-12-09T12:58:58.259Z,9.07
2022-12-09T13:01:30.794Z,8.95
2022-12-09T13:04:42.302Z,9.68
2022-12-09T13:07:21.845Z,9.20
2022-12-09T13:10:03.351Z,9.82
2022-12-09T13:12:56.943Z,9.48
2022-12-09T13:15:40.342Z,9.32
2022-12-09T13:18:16.795Z,8.98
2022-12-09T13:20:49.678Z,8.77
2022-12-09T13:23:21.977Z,8.43
2022-12-09T13:26:09.335Z,8.60
2022-12-09T13:29:13.419Z,10.00
2022-12-09T13:31:53.548Z,12.43
2022-12-09T13:34:36.985Z,10.25
2022-12-09T13:37:03.719Z,10.60
2022-12-09T13:39:39.120Z,11.07
2022-12-09T13:42:46.532Z,10.75
2022-12-09T13:45:39.434Z,9.15
2022-12-09T13:48:28.468Z,10.38
2022-12-09T13:50:59.385Z,9.73
2022-12-09T13:53:46.094Z,10.35
2022-12-09T13:56:16.162Z,10.60
2022-12-09T13:59:14.717Z,10.63
2022-12-09T14:01:50.451Z,10.15
2022-12-09T14:04:26.628Z,10.80
2022-12-09T14:07:14.810Z,10.55
2022-12-09T14:09:44.162Z,10.23
2022-12-09T14:12:14.321Z,9.82
2022-12-09T14:14:43.707Z,10.77
2022-12-09T14:17:26.647Z,10.80
2022-12-09T14:20:21.824Z,10.50
2022-12-09T14:23:06.470Z,11.05
2022-12-09T14:25:36.143Z,11.82
2022-12-09T14:28:11.678Z,13.30
2022-12-09T14:31:00.756Z,11.43
2022-12-09T14:33:31.316Z,11.50
2022-12-09T14:36:08.848Z,12.98
2022-12-09T14:42:12.410Z,13.85
2022-12-09T14:45:02.228Z,13.30
2022-12-09T14:47:32.296Z,12.45
2022-12-09T14:50:15.450Z,13.02
2022-12-09T14:53:01.011Z,12.80
2022-12-09T14:55:30.176Z,13.77
2022-12-09T14:57:59.863Z,13.27
2022-12-09T15:00:40.244Z,12.80
2022-12-09T15:03:44.500Z,13.07
2022-12-09T15:06:16.440Z,12.63
2022-12-09T15:08:42.941Z,13.07
2022-12-09T15:11:25.082Z,12.25
2022-12-09T15:13:53.903Z,12.63
2022-12-09T15:16:24.802Z,12.60
2022-12-09T15:18:52.926Z,12.57
2022-12-09T15:21:27.766Z,12.98
2022-12-09T15:23:54.953Z,11.80
2022-12-09T15:26:25.627Z,12.35
2022-12-09T15:28:55.882Z,12.80
2022-12-09T15:31:28.319Z,12.48
2022-12-09T15:33:57.713Z,11.65
2022-12-09T15:36:41.396Z,13.30
2022-12-09T15:39:33.723Z,13.48
2022-12-09T15:42:12.754Z,13.75
2022-12-09T15:44:53.383Z,14.80
2022-12-09T15:47:38.856Z,15.73
2022-12-09T15:50:21.288Z,15.27
2022-12-09T15:52:54.858Z,16.27
2022-12-09T15:55:32.132Z,21.05
2022-12-09T15:58:00.649Z,22.05
2022-12-09T16:00:27.255Z,24.15
2022-12-09T16:02:53.890Z,22.20
2022-12-09T16:05:23.932Z,21.02
2022-12-09T16:07:56.589Z,19.33
2022-12-09T16:10:26.545Z,20.02
2022-12-09T16:13:15.993Z,18.55
2022-12-09T16:15:52.721Z,17.60
2022-12-09T16:18:33.354Z,17.92
2022-12-09T16:21:15.002Z,17.90
2022-12-09T16:23:46.901Z,18.17
2022-12-09T16:26:35.214Z,19.13
2022-12-09T16:29:04.870Z,18.30
2022-12-09T16:31:31.557Z,18.33
2022-12-09T16:33:58.087Z,18.85
2022-12-09T16:36:27.467Z,19.08
2022-12-09T16:39:31.738Z,17.58
2022-12-09T16:42:01.575Z,19.02
2022-12-09T16:44:36.144Z,18.05
2022-12-09T16:47:16.006Z,18.92
2022-12-09T16:49:46.011Z,19.13
2022-12-09T16:52:24.077Z,18.98
2022-12-09T16:54:51.280Z,20.55
2022-12-09T16:57:20.115Z,20.90
2022-12-09T16:59:46.808Z,20.92
2022-12-09T17:02:38.942Z,20.58
2022-12-09T17:05:06.398Z,19.73
2022-12-09T17:07:33.131Z,19.70
2022-12-09T17:09:59.465Z,19.52
2022-12-09T17:12:25.907Z,21.33
2022-12-09T17:14:52.455Z,21.02
2022-12-09T17:17:18.950Z,21.60
2022-12-09T17:19:45.304Z,23.25
2022-12-09T17:22:11.793Z,21.92
2022-12-09T17:24:38.381Z,22.65
2022-12-09T17:27:04.696Z,22.92
2022-12-09T17:29:31.059Z,23.52
2022-12-09T17:31:57.467Z,23.52
2022-12-09T17:34:23.817Z,24.73
2022-12-09T17:36:50.242Z,24.67
2022-12-09T17:39:16.689Z,24.55
2022-12-09T17:41:43.014Z,24.23
2022-12-09T17:44:11.852Z,26.55
2022-12-09T17:46:38.319Z,21.52
2022-12-09T17:49:04.683Z,22.48
2022-12-09T17:51:35.916Z,22.30
2022-12-09T17:54:03.418Z,23.83
2022-12-09T17:56:29.810Z,23.13
2022-12-09T17:58:59.776Z,21.45
2022-12-09T18:01:29.477Z,20.88
2022-12-09T18:04:06.216Z,23.23
2022-12-09T18:06:35.822Z,25.00
2022-12-09T18:09:08.665Z,24.38
2022-12-09T18:11:35.760Z,23.05
2022-12-09T18:14:02.354Z,25.30
2022-12-09T18:16:28.938Z,25.67
2022-12-09T18:18:55.401Z,23.65
2022-12-09T18:21:22.004Z,24.33
2022-12-09T18:23:48.652Z,23.08
2022-12-09T18:26:18.636Z,23.50
2022-12-09T18:28:45.566Z,23.20
2022-12-09T18:31:18.920Z,24.58
2022-12-09T18:33:45.473Z,24.58
2022-12-09T18:36:15.378Z,24.80
2022-12-09T18:38:42.764Z,24.52
2022-12-09T18:41:20.019Z,25.08
2022-12-09T18:43:48.024Z,24.92
2022-12-09T18:46:21.393Z,25.17
2022-12-09T18:49:14.585Z,22.60
2022-12-09T18:51:43.201Z,24.35
2022-12-09T18:54:14.271Z,24.33
2022-12-09T18:56:40.704Z,23.05
2022-12-09T18:59:08.596Z,24.75
2022-12-09T19:01:39.736Z,24.00
2022-12-09T19:04:08.651Z,26.52
2022-12-09T19:06:37.321Z,24.48
2022-12-09T19:09:10.056Z,26.30
2022-12-09T19:11:37.964Z,26.25
2022-12-09T19:14:05.786Z,25.63
2022-12-09T19:16:32.903Z,23.90
2022-12-09T19:19:05.530Z,24.02
2022-12-09T19:21:35.422Z,24.73
2022-12-09T19:24:01.783Z,26.80
2022-12-09T19:26:30.587Z,24.73
2022-12-09T19:28:59.789Z,26.02
2022-12-09T19:31:37.807Z,25.63
2022-12-09T19:34:16.032Z,24.80
2022-12-09T19:36:43.526Z,24.95
2022-12-09T19:39:10.962Z,25.52
2022-12-09T19:41:38.318Z,23.73
2022-12-09T19:44:05.109Z,24.73
2022-12-09T19:46:32.570Z,24.55
2022-12-09T19:48:59.551Z,24.38
2022-12-09T19:51:27.285Z,23.35
2022-12-09T19:53:55.464Z,24.13
2022-12-09T19:56:23.013Z,24.83
2022-12-09T19:58:50.621Z,25.35
2022-12-09T20:01:25.956Z,26.13
2022-12-09T20:04:18.978Z,26.13
2022-12-09T20:06:51.038Z,27.10
2022-12-09T20:09:23.905Z,26.70
2022-12-09T20:11:51.428Z,26.92
2022-12-09T20:14:20.990Z,27.65
2022-12-09T20:16:47.539Z,28.40
2022-12-09T20:19:14.065Z,30.20
2022-12-09T20:21:40.609Z,29.95
2022-12-09T20:24:08.107Z,28.63
2022-12-09T20:26:36.755Z,25.65
2022-12-09T20:29:07.494Z,25.02
2022-12-09T20:31:36.151Z,28.38
2022-12-09T20:34:05.412Z,27.23
2022-12-09T20:36:34.174Z,27.35
2022-12-09T20:39:05.361Z,30.75
2022-12-09T20:41:33.292Z,33.13
2022-12-09T20:44:00.341Z,34.92
2022-12-09T20:46:29.283Z,33.90
2022-12-09T20:48:56.718Z,32.25
2022-12-09T20:51:31.738Z,30.17
2022-12-09T20:53:59.189Z,29.25
2022-12-09T20:56:27.806Z,27.48
2022-12-09T20:58:54.533Z,26.17
2022-12-09T21:01:24.305Z,27.05
2022-12-09T21:03:51.465Z,27.73
2022-12-09T21:06:20.538Z,25.85
2022-12-09T21:08:47.634Z,27.00
2022-12-09T21:11:17.551Z,27.98
2022-12-09T21:13:47.623Z,26.30
2022-12-09T21:16:22.293Z,26.23
2022-12-09T21:18:50.698Z,25.58
2022-12-09T21:21:19.133Z,26.35
2022-12-09T21:23:46.005Z,26.75
2022-12-09T21:26:15.630Z,27.80
2022-12-09T21:28:43.294Z,26.77
2022-12-09T21:31:15.727Z,27.83
2022-12-09T21:33:44.121Z,24.25
2022-12-09T21:36:13.407Z,24.33
2022-12-09T21:38:39.754Z,24.45
2022-12-09T21:41:09.274Z,25.10
2022-12-09T21:43:37.006Z,25.33
2022-12-09T21:46:08.474Z,26.80
2022-12-09T21:48:35.737Z,25.60
2022-12-09T21:51:02.772Z,25.85
2022-12-09T21:53:31.438Z,24.67
2022-12-09T21:56:02.987Z,24.60
2022-12-09T21:58:31.391Z,25.83
2022-12-09T22:00:58.286Z,24.95
2022-12-09T22:03:25.369Z,25.33
2022-12-09T22:05:58.023Z,25.25
2022-12-09T22:08:24.711Z,25.23
2022-12-09T22:10:51.081Z,25.00
2022-12-09T22:13:17.396Z,24.52
2022-12-09T22:15:43.764Z,24.75
2022-12-09T22:18:10.119Z,25.15
2022-12-09T22:23:22.782Z,25.50
2022-12-09T22:25:49.096Z,26.38
2022-12-09T22:28:15.418Z,25.60
2022-12-09T22:30:41.804Z,25.98
2022-12-09T22:33:08.161Z,24.60
2022-12-09T22:35:34.604Z,25.33
2022-12-09T22:38:02.195Z,25.52
2022-12-09T22:40:31.772Z,24.77
2022-12-09T22:42:58.085Z,24.65
2022-12-09T22:45:24.571Z,24.83
2022-12-09T22:47:51.174Z,23.95
2022-12-09T22:50:17.511Z,26.50
2022-12-09T22:52:43.877Z,24.15
2022-12-09T22:55:10.263Z,24.60
2022-12-09T22:57:36.587Z,25.58
2022-12-09T23:00:05.381Z,23.98
2022-12-09T23:02:33.087Z,24.63
2022-12-09T23:04:59.492Z,24.30
2022-12-09T23:07:26.182Z,25.48
2022-12-09T23:09:52.569Z,24.42
2022-12-09T23:12:18.920Z,25.55
2022-12-09T23:14:45.275Z,25.67
2022-12-09T23:17:11.687Z,26.25
2022-12-09T23:19:38.013Z,25.45
2022-12-09T23:22:04.562Z,26.50
2022-12-09T23:24:30.953Z,25.75
2022-12-09T23:26:57.347Z,27.23
2022-12-09T23:29:23.963Z,26.52
2022-12-09T23:31:50.940Z,25.85
2022-12-09T23:34:17.800Z,26.23
2022-12-09T23:36:45.644Z,26.25
2022-12-09T23:39:15.591Z,26.00
2022-12-09T23:41:43.058Z,25.95
2022-12-09T23:44:16.196Z,25.48
2022-12-09T23:46:43.269Z,26.88
2022-12-09T23:49:09.709Z,26.67
2022-12-09T23:51:39.418Z,26.88
2022-12-09T23:54:07.492Z,24.73
2022-12-09T23:56:38.587Z,26.42
2022-12-09T23:59:08.310Z,24.92
